Home   Weather   Germany   Neunkirchen (Saar)   Past weeks
Flag for Germany

Past Weather in Neunkirchen (Saar), Saarland, Germany — Yesterday and Last 2 Weeks

Currently: 55 °F. Clear. (Weather station: Saarbruecken / Ensheim, Germany). See more current weather

Past Weather in Neunkirchen (Saar) — Graph

°F

Neunkirchen (Saar) Temperature Yesterday

Maximum temperature yesterday: 72 °F (at 4:20 pm)
Minimum temperature yesterday: 55 °F (at 5:20 am)
Average temperature yesterday: 63 °F

High & Low Weather Summary for the Past Weeks

 TemperatureHumidityPressure
High81 °F (Jul 18, 3:50 pm)100% (Jul 17, 5:50 am)30.24 "Hg (Jul 17, 5:50 am)
Low52 °F (Jul 30, 4:50 am)39% (Jul 23, 4:20 pm)29.80 "Hg (Jul 24, 3:50 am)
Average66 °F73%30.01 "Hg
* Reported Jul 17 5:20 am — Aug 1 5:20 am, Neunkirchen (Saar). Weather by CustomWeather, © 2021

Note: Actual official high and low records may vary slightly from our data, if they occured in-between our weather recording intervals... More about our weather records

Neunkirchen (Saar) Weather History for the Previous 24 Hours

Scroll right to see more
 ConditionsComfort  
Time TempWeatherWind HumidityBarometerVisibility
5:20 am
Sun, Aug 1
54 °FClear.5 mph100%29.83 "Hg10 mi
4:50 am55 °FClear.5 mph94%29.83 "Hg10 mi
4:20 am55 °FClear.3 mph94%29.83 "Hg10 mi
3:20 am57 °FClear.3 mph88%29.83 "Hg10 mi
2:50 am57 °FClear.1 mph88%29.83 "Hg10 mi
1:20 am57 °FPassing clouds.3 mph88%29.86 "HgN/A
12:50 am59 °FClear.3 mph82%29.86 "Hg10 mi
11:50 pm
Sat, Jul 31
61 °FClear.5 mph77%29.86 "Hg10 mi
11:20 pm61 °FClear.5 mph77%29.86 "Hg10 mi
10:50 pm61 °FPassing clouds.2 mph77%29.86 "HgN/A
10:20 pm61 °FPassing clouds.2 mph77%29.86 "HgN/A
9:20 pm63 °FPassing clouds.3 mph68%29.86 "HgN/A
8:50 pm64 °FPassing clouds.5 mph64%29.86 "HgN/A
8:20 pm64 °FPassing clouds.6 mph64%29.86 "HgN/A
7:50 pm66 °FPassing clouds.8 mph60%29.86 "HgN/A
7:20 pm66 °FSunny.10 mph60%29.86 "Hg10 mi
6:50 pm68 °FPassing clouds.10 mph56%29.86 "HgN/A
6:20 pm70 °FPassing clouds.10 mph53%29.86 "HgN/A
5:50 pm68 °FPassing clouds.9 mph56%29.89 "HgN/A
5:20 pm70 °FPassing clouds.10 mph50%29.89 "HgN/A
4:50 pm70 °FPassing clouds.12 mph53%29.89 "HgN/A
4:20 pm72 °FScattered clouds.12 mph50%29.89 "HgN/A
3:50 pm70 °FScattered clouds.13 mph53%29.89 "HgN/A
3:20 pm68 °FScattered clouds.13 mph60%29.89 "HgN/A
2:50 pm68 °FScattered clouds.14 mph56%29.89 "HgN/A
2:20 pm68 °FPartly sunny.15 mph60%29.89 "HgN/A
1:50 pm68 °FPartly sunny.17 mph56%29.89 "HgN/A
1:20 pm66 °FPartly sunny.16 mph64%29.89 "HgN/A
12:50 pm64 °FPartly sunny.18 mph64%29.89 "HgN/A
12:20 pm66 °FScattered clouds.14 mph68%29.89 "HgN/A
11:50 am64 °FScattered clouds.14 mph64%29.89 "HgN/A
11:20 am64 °FPassing clouds.16 mph68%29.89 "HgN/A
10:50 am64 °FPassing clouds.17 mph68%29.89 "HgN/A
10:20 am64 °FPassing clouds.16 mph68%29.89 "HgN/A
9:50 am63 °FPassing clouds.13 mph68%29.89 "HgN/A
9:20 am61 °FPassing clouds.12 mph72%29.89 "HgN/A
8:50 am61 °FPassing clouds.10 mph72%29.89 "HgN/A
8:20 am59 °FPassing clouds.9 mph77%29.89 "HgN/A
7:50 am57 °FPassing clouds.7 mph77%29.89 "HgN/A
7:20 am55 °FPassing clouds.8 mph82%29.89 "HgN/A
6:50 am55 °FPassing clouds.6 mph82%29.89 "HgN/A
6:20 am55 °FSunny.6 mph82%29.89 "Hg10 mi
Weather by CustomWeather, © 2021

See weather overview